Time;durP1;ratioP1;P1;durP2;ratioP2;P2;SDS_P1;SDS_P2;PMS_P1;PMS_P2;Temp;Humidity;BMP_temperature;BMP_pressure;BME280_temperature;BME280_humidity;BME280_pressure;Samples;Min_cycle;Max_cycle;Signal;HPM_P1;HPM_P2
2021/04/02 00:00:58;;;;;;;25.80;19.25;;;;;;;11.16;72.12;98595.77;1715885;83;21164;-65
2021/04/02 00:03:29;;;;;;;26.90;19.17;;;;;;;11.26;71.09;98596.92;1694522;83;21180;-65
2021/04/02 00:05:57;;;;;;;28.23;20.05;;;;;;;11.15;70.84;98583.25;1707242;83;21295;-66
2021/04/02 00:08:24;;;;;;;24.75;18.27;;;;;;;11.00;70.51;98574.83;1708649;82;21225;-64
2021/04/02 00:10:59;;;;;;;25.95;18.48;;;;;;;10.94;70.14;98559.70;1708742;83;21161;-64
2021/04/02 00:13:34;;;;;;;25.10;18.12;;;;;;;10.97;68.67;98557.19;1706721;83;21214;-64
2021/04/02 00:16:02;;;;;;;25.60;18.10;;;;;;;10.92;69.46;98549.10;1713205;83;21167;-64
2021/04/02 00:18:30;;;;;;;24.50;17.02;;;;;;;10.87;68.65;98548.41;1706394;83;21206;-65
2021/04/02 00:21:00;;;;;;;24.18;17.02;;;;;;;10.83;68.12;98548.20;1707526;83;21153;-64
2021/04/02 00:23:27;;;;;;;25.02;16.07;;;;;;;10.87;67.28;98542.97;1699868;83;21242;-64
2021/04/02 00:25:55;;;;;;;24.12;17.27;;;;;;;10.92;67.18;98533.31;1716335;83;21604;-64
2021/04/02 00:28:24;;;;;;;21.68;16.40;;;;;;;10.90;67.39;98534.19;1708511;83;21628;-65
2021/04/02 00:30:56;;;;;;;24.05;17.07;;;;;;;10.83;67.36;98534.59;1694304;83;21405;-65
2021/04/02 00:33:26;;;;;;;22.17;16.00;;;;;;;10.78;67.28;98531.15;1715686;83;21642;-65
2021/04/02 00:35:58;;;;;;;23.55;15.80;;;;;;;10.86;67.16;98529.91;1710944;83;21125;-65
2021/04/02 00:38:26;;;;;;;23.32;15.63;;;;;;;10.86;66.84;98521.73;1708513;83;21307;-64
2021/04/02 00:41:02;;;;;;;22.87;16.75;;;;;;;10.83;66.65;98524.26;1697358;83;21176;-65
2021/04/02 00:43:37;;;;;;;24.07;16.15;;;;;;;10.77;66.24;98522.17;1714676;83;21639;-65
2021/04/02 00:46:06;;;;;;;24.05;16.17;;;;;;;10.76;66.16;98523.85;1713714;83;21157;-64
2021/04/02 00:48:35;;;;;;;22.58;15.25;;;;;;;10.85;65.67;98530.19;1702906;82;21603;-64
2021/04/02 00:51:09;;;;;;;22.60;15.83;;;;;;;10.87;65.26;98519.27;1694403;83;21125;-63
2021/04/02 00:53:42;;;;;;;23.85;14.85;;;;;;;10.85;65.81;98518.75;1711228;83;21164;-63
2021/04/02 00:56:12;;;;;;;22.98;15.95;;;;;;;10.79;65.54;98514.53;1713390;83;21165;-63
2021/04/02 00:58:41;;;;;;;22.65;15.75;;;;;;;10.71;65.02;98505.70;1706243;83;21177;-64
2021/04/02 01:01:09;;;;;;;21.12;14.98;;;;;;;10.69;65.73;98506.56;1696766;83;21169;-64
2021/04/02 01:03:38;;;;;;;22.52;15.88;;;;;;;10.75;65.63;98514.87;1700284;83;21125;-64
2021/04/02 01:06:17;;;;;;;23.35;15.75;;;;;;;10.78;65.69;98513.45;1715806;82;21522;-64
2021/04/02 01:08:45;;;;;;;22.90;14.98;;;;;;;10.69;65.47;98505.75;1698945;83;21217;-65
2021/04/02 01:11:16;;;;;;;22.70;15.98;;;;;;;10.62;65.79;98500.72;1711250;83;21153;-64
2021/04/02 01:13:46;;;;;;;24.25;15.50;;;;;;;10.55;65.48;98499.50;1704731;83;21186;-64
2021/04/02 01:16:17;;;;;;;23.73;15.60;;;;;;;10.60;65.69;98498.02;1715853;83;21204;-64
2021/04/02 01:19:13;;;;;;;24.40;15.43;;;;;;;10.65;65.58;98488.41;1697384;83;21126;-64
2021/04/02 01:21:56;;;;;;;21.20;15.95;;;;;;;10.57;65.66;98480.94;1705293;83;21594;-64
2021/04/02 01:24:53;;;;;;;24.45;16.15;;;;;;;10.49;65.96;98481.89;1708812;82;21712;-65
2021/04/02 01:27:59;;;;;;;24.32;16.30;;;;;;;10.42;66.12;98473.32;1685712;83;21723;-65
2021/04/02 01:30:27;;;;;;;20.62;14.93;;;;;;;10.48;66.04;98470.78;1717341;83;21117;-65
2021/04/02 01:32:54;;;;;;;22.52;16.20;;;;;;;10.48;66.03;98466.70;1707992;83;21295;-65
2021/04/02 01:35:32;;;;;;;22.05;15.72;;;;;;;10.43;66.31;98465.42;1707171;83;21140;-65
2021/04/02 01:38:12;;;;;;;24.07;15.30;;;;;;;10.38;66.45;98468.23;1693900;83;21134;-65
2021/04/02 01:40:42;;;;;;;24.98;16.10;;;;;;;10.33;66.49;98462.90;1676436;83;21584;-64
2021/04/02 01:43:13;;;;;;;25.15;15.55;;;;;;;10.38;66.47;98460.64;1688474;84;21618;-64
2021/04/02 01:45:42;;;;;;;20.57;14.55;;;;;;;10.43;66.25;98459.17;1697599;83;21283;-64
2021/04/02 01:48:13;;;;;;;23.27;15.28;;;;;;;10.38;66.35;98455.20;1712768;83;21167;-65
2021/04/02 01:50:43;;;;;;;21.48;15.32;;;;;;;10.31;66.46;98466.45;1719660;83;21260;-65
2021/04/02 01:53:11;;;;;;;20.48;15.63;;;;;;;10.25;66.88;98447.27;1690909;83;21325;-64
2021/04/02 01:55:41;;;;;;;23.27;15.15;;;;;;;10.18;67.07;98440.05;1717250;83;21173;-64
2021/04/02 01:58:09;;;;;;;23.47;15.48;;;;;;;10.18;67.12;98447.41;1692538;83;21592;-65
2021/04/02 02:00:45;;;;;;;21.27;14.87;;;;;;;10.22;66.99;98438.91;1707257;84;21149;-65
2021/04/02 02:03:15;;;;;;;23.20;15.80;;;;;;;10.15;67.22;98438.48;1702245;84;21569;-65
2021/04/02 02:05:46;;;;;;;22.48;15.40;;;;;;;10.06;67.49;98437.55;1702882;84;21327;-65
2021/04/02 02:08:23;;;;;;;20.80;14.43;;;;;;;10.03;67.74;98432.69;1790684;79;23127;-65
2021/04/02 02:11:09;;;;;;;24.00;14.78;;;;;;;9.99;67.77;98437.91;1765217;80;21282;-65
2021/04/02 02:13:46;;;;;;;23.32;14.45;;;;;;;10.05;67.69;98429.13;1762525;80;21293;-66
2021/04/02 02:16:15;;;;;;;20.68;14.63;;;;;;;9.97;67.85;98427.91;1762578;80;21720;-66
2021/04/02 02:18:43;;;;;;;20.52;14.00;;;;;;;9.89;68.04;98428.58;1761456;80;21161;-66
2021/04/02 02:21:14;;;;;;;20.40;14.38;;;;;;;9.83;68.16;98428.42;1761415;80;21591;-66
2021/04/02 02:23:43;;;;;;;20.35;14.38;;;;;;;9.84;68.29;98428.69;1763765;80;21514;-65
2021/04/02 02:26:12;;;;;;;21.90;14.87;;;;;;;9.87;68.04;98423.46;1718859;83;21169;-66
2021/04/02 02:28:42;;;;;;;22.15;15.43;;;;;;;9.82;68.24;98422.73;1719716;83;21641;-65
2021/04/02 02:31:11;;;;;;;22.37;14.53;;;;;;;9.77;68.31;98426.36;1690889;83;21303;-65
2021/04/02 02:33:42;;;;;;;17.73;12.68;;;;;;;9.75;68.29;98429.10;1709325;83;21144;-66
2021/04/02 02:36:18;;;;;;;21.62;15.68;;;;;;;9.77;68.32;98433.16;1792611;79;28370;-64
2021/04/02 02:38:46;;;;;;;20.70;13.88;;;;;;;9.99;67.68;98436.55;1721065;80;21685;-65
2021/04/02 02:41:14;;;;;;;20.75;14.15;;;;;;;10.19;66.96;98428.08;1752240;81;21149;-65
2021/04/02 02:43:42;;;;;;;22.25;15.00;;;;;;;10.07;67.31;98419.56;1729431;81;21173;-65
2021/04/02 02:46:11;;;;;;;22.48;13.70;;;;;;;9.94;67.54;98421.71;1730452;81;21200;-65
2021/04/02 02:48:48;;;;;;;20.75;13.88;;;;;;;9.90;67.40;98422.86;1727591;81;21174;-66
2021/04/02 02:51:17;;;;;;;19.37;13.72;;;;;;;9.94;67.27;98431.23;1712639;81;21307;-66
2021/04/02 02:53:45;;;;;;;18.48;13.72;;;;;;;9.84;67.53;98449.08;1739201;81;21165;-66
2021/04/02 02:56:15;;;;;;;20.97;12.80;;;;;;;9.69;68.23;98454.20;1670480;83;21164;-65
2021/04/02 02:58:43;;;;;;;21.50;13.90;;;;;;;9.65;68.28;98452.38;1726747;81;21145;-65
2021/04/02 03:01:13;;;;;;;23.22;14.70;;;;;;;9.65;67.92;98442.31;1727754;81;21213;-65
2021/04/02 03:03:42;;;;;;;20.27;15.15;;;;;;;9.63;68.07;98433.67;1744209;81;21200;-65
2021/04/02 03:06:11;;;;;;;25.00;16.00;;;;;;;9.60;68.07;98436.17;1711533;81;21161;-66
2021/04/02 03:08:45;;;;;;;21.35;13.50;;;;;;;9.54;67.94;98442.22;1729419;81;21145;-65
2021/04/02 03:11:16;;;;;;;21.55;14.95;;;;;;;9.60;68.27;98442.38;1726141;81;21173;-65
2021/04/02 03:13:44;;;;;;;23.32;14.85;;;;;;;9.61;68.13;98436.41;1726819;81;21185;-65
2021/04/02 03:16:13;;;;;;;25.48;15.50;;;;;;;9.59;68.03;98435.36;1737809;81;21141;-66
2021/04/02 03:18:42;;;;;;;23.90;14.95;;;;;;;9.55;67.97;98437.59;1727348;81;21185;-66
2021/04/02 03:21:12;;;;;;;23.73;15.93;;;;;;;9.49;67.96;98427.38;1726705;81;21196;-66
2021/04/02 03:23:42;;;;;;;24.80;15.53;;;;;;;9.47;67.87;98429.02;1714416;83;21191;-65
2021/04/02 03:26:10;;;;;;;17.80;12.93;;;;;;;9.55;67.66;98437.59;1697679;83;21315;-65
2021/04/02 03:28:39;;;;;;;23.67;14.75;;;;;;;9.62;67.54;98433.41;1708441;81;21176;-65
2021/04/02 03:31:08;;;;;;;29.95;15.28;;;;;;;9.56;67.66;98439.22;1738072;81;21180;-66
2021/04/02 03:33:44;;;;;;;23.87;15.20;;;;;;;9.48;67.85;98436.08;1750016;81;21445;-66
2021/04/02 03:36:16;;;;;;;22.73;15.15;;;;;;;9.47;67.93;98436.36;1723329;82;21145;-66
2021/04/02 03:38:45;;;;;;;24.75;14.70;;;;;;;9.42;68.10;98442.66;1721000;82;21189;-66
2021/04/02 03:41:18;;;;;;;19.80;12.60;;;;;;;9.37;68.23;98435.97;1713608;82;21177;-66
2021/04/02 03:43:46;;;;;;;22.22;13.20;;;;;;;9.39;68.50;98439.19;1721573;81;21568;-66
2021/04/02 03:46:13;;;;;;;22.48;15.10;;;;;;;9.32;69.02;98426.53;1676643;83;21601;-65
2021/04/02 03:48:41;;;;;;;21.68;15.13;;;;;;;9.18;69.45;98431.09;1715693;82;21170;-66
2021/04/02 03:51:10;;;;;;;24.75;15.30;;;;;;;9.04;69.64;98423.42;1743025;82;21149;-66
2021/04/02 03:54:02;;;;;;;20.40;13.78;;;;;;;8.96;69.82;98428.95;1677495;84;21299;-66
2021/04/02 03:56:34;;;;;;;20.68;14.63;;;;;;;8.96;69.96;98433.02;1695077;82;21138;-66
2021/04/02 03:59:04;;;;;;;21.00;16.27;;;;;;;9.00;70.57;98429.17;1717781;82;21723;-66
2021/04/02 04:01:36;;;;;;;22.90;18.25;;;;;;;8.91;70.74;98429.04;1731874;82;21291;-66
2021/04/02 04:04:05;;;;;;;30.55;19.60;;;;;;;8.88;71.07;98430.17;1740293;82;21323;-66
2021/04/02 04:06:35;;;;;;;22.75;17.90;;;;;;;8.85;71.25;98425.33;1723371;83;21137;-66
2021/04/02 04:09:13;;;;;;;21.55;16.67;;;;;;;8.96;71.05;98424.09;1695561;82;21133;-66
2021/04/02 04:11:41;;;;;;;;;;;;;;;9.02;70.99;98426.18;1727134;82;21339;-66
2021/04/02 04:14:10;;;;;;;22.73;16.93;;;;;;;8.99;71.19;98426.22;1717065;83;20259;-65
2021/04/02 04:16:40;;;;;;;26.93;17.50;;;;;;;8.88;71.42;98422.03;1722327;82;21204;-65
2021/04/02 04:19:09;;;;;;;22.65;16.12;;;;;;;8.87;71.56;98420.41;1725757;82;21169;-66
2021/04/02 04:21:40;;;;;;;23.47;15.13;;;;;;;8.96;71.25;98411.89;1732838;82;21154;-66
2021/04/02 04:24:17;;;;;;;23.35;16.95;;;;;;;9.03;71.09;98413.69;1721770;82;21295;-65
2021/04/02 04:26:55;;;;;;;24.52;16.20;;;;;;;9.04;71.13;98398.99;1779101;79;22608;-65
2021/04/02 04:29:27;;;;;;;24.00;17.37;;;;;;;8.99;71.07;98397.18;1715604;82;21592;-66
2021/04/02 04:31:56;;;;;;;24.32;15.93;;;;;;;9.06;70.75;98398.71;1710920;83;21145;-65
2021/04/02 04:34:23;;;;;;;22.87;15.65;;;;;;;9.21;70.32;98393.06;1704110;83;21171;-65
2021/04/02 04:36:51;;;;;;;27.67;17.87;;;;;;;9.22;70.13;98391.94;1709814;83;21161;-66
2021/04/02 04:39:19;;;;;;;24.47;16.30;;;;;;;9.20;70.14;98405.83;1699699;83;21156;-66
2021/04/02 04:41:46;;;;;;;23.65;15.72;;;;;;;9.15;70.36;98421.37;1717107;82;21534;-65
2021/04/02 04:44:14;;;;;;;26.05;15.75;;;;;;;9.15;70.45;98418.11;1710219;82;21732;-65
2021/04/02 04:46:41;;;;;;;22.98;17.10;;;;;;;9.22;70.25;98423.97;1618189;85;21179;-65
2021/04/02 04:49:09;;;;;;;24.92;15.48;;;;;;;9.19;70.31;98430.00;1676111;84;21188;-61
2021/04/02 04:51:36;;;;;;;21.45;15.53;;;;;;;9.15;70.48;98428.16;1670110;85;21615;-62
2021/04/02 04:54:04;;;;;;;18.95;13.20;;;;;;;9.11;70.84;98415.72;1668996;84;21531;-62
2021/04/02 04:56:32;;;;;;;21.95;14.13;;;;;;;9.16;71.26;98418.38;1644929;85;21744;-61
2021/04/02 04:59:02;;;;;;;21.40;14.58;;;;;;;9.22;71.49;98415.02;1664945;84;21376;-61
2021/04/02 05:01:40;;;;;;;21.85;16.30;;;;;;;9.19;71.76;98412.34;1672178;85;21631;-61
2021/04/02 05:04:10;;;;;;;25.45;17.00;;;;;;;9.16;72.17;98402.08;1677644;85;21200;-62
2021/04/02 05:06:38;;;;;;;24.82;17.20;;;;;;;9.12;72.53;98403.77;1673383;85;21746;-63
2021/04/02 05:09:06;;;;;;;29.15;19.62;;;;;;;9.15;72.86;98393.67;1707955;82;21198;-61
2021/04/02 05:11:36;;;;;;;31.85;20.68;;;;;;;9.22;72.80;98400.08;1705820;83;21314;-61
2021/04/02 05:14:03;;;;;;;40.70;25.88;;;;;;;9.17;72.98;98387.41;1717721;82;21173;-62
2021/04/02 05:16:30;;;;;;;36.85;22.95;;;;;;;9.07;73.60;98378.61;1718576;83;21152;-61
2021/04/02 05:18:59;;;;;;;31.33;21.87;;;;;;;8.99;73.92;98383.61;1709254;82;21415;-62
2021/04/02 05:21:26;;;;;;;30.43;20.35;;;;;;;9.03;74.16;98389.25;1709859;83;21596;-62
2021/04/02 05:23:53;;;;;;;33.53;23.40;;;;;;;9.02;74.75;98372.70;1688693;83;21337;-63
2021/04/02 05:26:21;;;;;;;29.82;20.23;;;;;;;8.95;75.33;98379.86;1705428;83;21178;-62
2021/04/02 05:28:49;;;;;;;28.02;19.02;;;;;;;8.89;75.77;98381.59;1662398;84;21702;-62
2021/04/02 05:31:18;;;;;;;63.42;47.60;;;;;;;8.93;76.12;98369.02;1701569;84;21646;-62
2021/04/02 05:33:48;;;;;;;37.78;27.02;;;;;;;8.88;76.72;98356.91;1708822;82;21913;-62
2021/04/02 05:36:15;;;;;;;37.70;24.85;;;;;;;8.79;77.14;98351.31;1697705;84;21169;-61
2021/04/02 05:38:43;;;;;;;29.77;20.95;;;;;;;8.77;77.80;98336.44;1692931;84;21161;-61
2021/04/02 05:41:38;;;;;;;33.35;22.58;;;;;;;8.81;78.09;98335.56;1705302;83;21644;-62
2021/04/02 05:44:08;;;;;;;33.15;22.13;;;;;;;8.76;78.57;98341.05;1690474;85;21864;-62
2021/04/02 05:46:36;;;;;;;26.57;19.23;;;;;;;8.65;79.47;98342.84;1698870;84;21173;-62
2021/04/02 05:49:05;;;;;;;28.02;18.85;;;;;;;8.75;79.31;98350.86;1706301;84;21161;-62
2021/04/02 05:51:33;;;;;;;27.58;20.08;;;;;;;8.80;79.24;98369.77;1696860;84;21157;-62
2021/04/02 05:54:01;;;;;;;27.85;19.42;;;;;;;8.79;79.73;98379.81;1685565;84;21489;-63
2021/04/02 05:56:29;;;;;;;26.65;18.65;;;;;;;8.82;80.08;98380.58;1691335;84;21137;-63
2021/04/02 05:58:57;;;;;;;28.65;19.80;;;;;;;8.93;80.04;98390.19;1703741;82;21318;-63
2021/04/02 06:01:25;;;;;;;32.33;21.50;;;;;;;8.95;80.23;98389.36;1689447;84;21197;-62
2021/04/02 06:03:54;;;;;;;29.70;20.05;;;;;;;8.94;80.50;98382.86;1667569;84;21193;-61
2021/04/02 06:06:22;;;;;;;25.50;19.20;;;;;;;9.08;80.40;98382.38;1681044;84;21154;-61
2021/04/02 06:08:49;;;;;;;32.13;21.97;;;;;;;9.17;80.54;98388.77;1689784;84;21159;-63
2021/04/02 06:11:17;;;;;;;33.88;21.62;;;;;;;9.15;81.04;98399.65;1641283;84;21584;-62
2021/04/02 06:13:45;;;;;;;35.80;23.52;;;;;;;9.24;81.25;98416.91;1687020;82;21165;-62
2021/04/02 06:16:13;;;;;;;43.02;31.23;;;;;;;9.38;81.04;98429.45;1702935;83;21138;-62
2021/04/02 06:18:41;;;;;;;41.50;30.60;;;;;;;9.42;80.79;98432.38;1656161;84;21197;-61
2021/04/02 06:21:10;;;;;;;39.78;26.85;;;;;;;9.37;80.86;98448.19;1686952;82;21628;-62
2021/04/02 06:23:38;;;;;;;39.48;28.15;;;;;;;9.41;80.77;98445.15;1701345;82;21165;-60
2021/04/02 06:28:44;;;;;;;36.87;25.83;;;;;;;9.51;80.78;98453.68;1741356;79;23114;-59
2021/04/02 06:31:15;;;;;;;35.92;24.77;;;;;;;9.47;80.94;98455.37;1700631;82;21328;-61
2021/04/02 06:33:54;;;;;;;34.13;23.50;;;;;;;9.55;80.94;98453.90;1710975;82;21327;-61
2021/04/02 06:36:28;;;;;;;32.75;22.55;;;;;;;9.61;80.69;98456.23;1710857;82;21156;-62
2021/04/02 06:38:58;;;;;;;29.85;20.35;;;;;;;9.58;80.91;98451.39;1705948;83;21144;-61
2021/04/02 06:41:27;;;;;;;25.70;17.85;;;;;;;9.60;81.21;98457.91;1712904;82;21576;-62
2021/04/02 06:43:59;;;;;;;24.43;18.95;;;;;;;9.70;81.14;98459.09;1706201;83;21634;-62
2021/04/02 06:46:33;;;;;;;26.97;20.52;;;;;;;9.75;81.30;98462.52;1708466;82;21197;-63
2021/04/02 06:49:15;;;;;;;28.60;22.07;;;;;;;9.75;81.42;98460.35;1697176;83;21168;-61
2021/04/02 06:51:45;;;;;;;28.80;18.60;;;;;;;9.71;81.74;98460.14;1707206;82;21779;-61
2021/04/02 06:54:16;;;;;;;25.95;21.48;;;;;;;9.81;81.78;98457.83;1716312;83;21157;-61
2021/04/02 06:56:58;;;;;;;25.90;20.60;;;;;;;9.88;81.51;98464.47;1715739;83;21402;-61
2021/04/02 06:59:26;;;;;;;25.32;18.77;;;;;;;9.85;81.56;98461.53;1700337;83;21601;-61
2021/04/02 07:01:56;;;;;;;31.37;21.55;;;;;;;9.82;81.53;98464.86;1712375;82;21331;-60
2021/04/02 07:04:24;;;;;;;26.82;22.40;;;;;;;9.90;81.37;98465.55;1708335;83;21186;-60
2021/04/02 07:06:53;;;;;;;24.05;18.07;;;;;;;9.85;81.61;98463.71;1691330;83;21125;-60
2021/04/02 07:10:37;;;;;;;23.80;17.25;;;;;;;9.96;81.93;98463.80;1798600;79;23381;-60
2021/04/02 07:13:05;;;;;;;17.87;12.85;;;;;;;9.81;82.45;98474.91;1771428;80;21169;-60
2021/04/02 07:15:34;;;;;;;16.93;12.85;;;;;;;9.73;82.69;98477.52;1772573;80;21408;-59
2021/04/02 07:18:04;;;;;;;15.83;11.33;;;;;;;9.65;82.32;98489.05;1766840;80;21165;-60
2021/04/02 07:20:31;;;;;;;16.42;10.30;;;;;;;9.48;82.15;98489.05;1771129;80;21161;-60
2021/04/02 07:22:59;;;;;;;15.03;10.00;;;;;;;9.32;82.17;98489.53;1779701;80;21602;-61
2021/04/02 07:25:27;;;;;;;13.30;9.50;;;;;;;9.12;81.94;98491.19;1761009;80;21591;-60
2021/04/02 07:27:57;;;;;;;11.65;8.28;;;;;;;8.74;81.88;98464.55;1791053;80;21214;-62
2021/04/02 07:30:27;;;;;;;11.63;7.78;;;;;;;8.69;82.20;98502.03;1777695;79;21605;-61
2021/04/02 07:33:03;;;;;;;13.13;8.70;;;;;;;8.48;82.55;98494.68;1768767;80;21185;-61
2021/04/02 07:35:31;;;;;;;10.58;7.72;;;;;;;8.34;82.50;98514.08;1782202;80;21152;-61
2021/04/02 07:37:59;;;;;;;11.90;7.28;;;;;;;8.32;82.50;98521.70;1765370;80;21228;-60
2021/04/02 07:40:33;;;;;;;8.65;6.20;;;;;;;8.21;82.86;98526.93;1761927;80;21194;-60
2021/04/02 07:43:07;;;;;;;9.30;6.28;;;;;;;8.12;82.50;98531.34;1777200;79;21553;-60
2021/04/02 07:45:37;;;;;;;8.30;5.17;;;;;;;8.00;82.45;98533.62;1781825;80;21174;-62
2021/04/02 07:48:22;;;;;;;8.40;5.75;;;;;;;7.81;82.70;98545.69;1781187;80;21252;-61
2021/04/02 07:50:55;;;;;;;8.83;5.22;;;;;;;7.74;82.86;98549.80;1783524;80;21218;-61
2021/04/02 07:53:34;;;;;;;7.65;4.95;;;;;;;7.69;83.10;98549.83;1779887;80;21222;-61
2021/04/02 07:56:09;;;;;;;7.85;4.80;;;;;;;7.57;83.06;98550.20;1767396;80;21754;-61
2021/04/02 07:58:52;;;;;;;6.47;4.15;;;;;;;7.39;82.82;98551.66;1778536;80;21169;-64
2021/04/02 08:01:22;;;;;;;4.80;3.42;;;;;;;7.24;82.37;98560.39;1773444;80;21172;-60
2021/04/02 08:03:51;;;;;;;5.50;4.00;;;;;;;7.19;82.36;98559.86;1757435;80;21165;-61
2021/04/02 08:06:38;;;;;;;5.35;3.40;;;;;;;7.11;82.27;98564.52;1768532;80;21636;-61
2021/04/02 08:09:08;;;;;;;5.05;3.58;;;;;;;6.99;81.83;98563.48;1772757;80;21609;-60
2021/04/02 08:11:44;;;;;;;6.20;3.60;;;;;;;6.92;81.89;98562.16;1764513;81;21106;-63
2021/04/02 08:14:13;;;;;;;5.58;3.40;;;;;;;6.89;81.98;98560.82;1766257;81;21428;-60
2021/04/02 08:16:53;;;;;;;6.15;3.30;;;;;;;6.93;81.72;98566.48;1759588;80;21577;-59
2021/04/02 08:19:32;;;;;;;4.78;3.17;;;;;;;6.83;81.91;98576.00;1757020;80;21106;-60
2021/04/02 08:22:03;;;;;;;5.33;3.60;;;;;;;6.85;82.13;98569.75;1747613;81;21320;-61
2021/04/02 08:24:33;;;;;;;5.20;3.60;;;;;;;6.80;82.23;98579.25;1767616;80;21345;-60
2021/04/02 08:27:02;;;;;;;5.55;3.12;;;;;;;6.75;82.28;98565.73;1774856;80;21133;-61
2021/04/02 08:29:30;;;;;;;6.15;3.80;;;;;;;6.73;82.00;98575.45;1760641;81;21589;-60
2021/04/02 08:32:00;;;;;;;4.42;3.00;;;;;;;6.68;82.27;98581.44;1762686;81;21162;-61
2021/04/02 08:34:30;;;;;;;3.62;2.62;;;;;;;6.64;81.93;98586.58;1752642;81;21182;-61
2021/04/02 08:37:00;;;;;;;4.90;2.70;;;;;;;6.65;81.51;98577.94;1754321;81;21157;-61
2021/04/02 08:39:28;;;;;;;3.15;2.00;;;;;;;6.59;81.17;98585.80;1760646;80;21534;-61
2021/04/02 08:44:43;;;;;;;2.75;2.05;;;;;;;6.57;81.26;98590.11;1811644;79;23031;-60
2021/04/02 08:47:12;;;;;;;3.25;2.10;;;;;;;6.48;81.71;98580.38;1709387;81;21319;-59
2021/04/02 08:52:28;;;;;;;4.55;3.05;;;;;;;6.50;82.18;98587.70;1808136;79;23494;-60
2021/04/02 08:54:58;;;;;;;4.45;2.50;;;;;;;6.36;82.40;98597.45;1771086;80;21589;-60
2021/04/02 08:57:29;;;;;;;5.15;2.75;;;;;;;6.42;82.40;98595.53;1766595;80;21142;-61
2021/04/02 08:59:58;;;;;;;4.30;2.45;;;;;;;6.45;82.60;98593.09;1764652;80;21514;-61
2021/04/02 09:02:28;;;;;;;2.15;1.60;;;;;;;6.32;82.98;98591.50;1687108;84;21621;-61
2021/04/02 09:04:56;;;;;;;2.52;1.67;;;;;;;6.27;82.97;98590.95;1701321;82;21168;-63
2021/04/02 09:07:24;;;;;;;2.67;1.80;;;;;;;6.28;83.00;98589.06;1724291;83;21287;-61
2021/04/02 09:09:52;;;;;;;2.17;1.60;;;;;;;6.24;82.70;98598.79;1702678;83;21669;-59
2021/04/02 09:12:20;;;;;;;3.22;1.40;;;;;;;6.22;82.41;98604.48;1737388;81;21948;-60
2021/04/02 09:14:51;;;;;;;3.15;1.22;;;;;;;6.23;82.20;98604.76;1734117;81;21271;-60
2021/04/02 09:17:26;;;;;;;1.80;1.17;;;;;;;6.17;81.92;98603.12;1733617;81;21161;-60
2021/04/02 09:19:54;;;;;;;2.22;1.10;;;;;;;6.11;82.42;98605.56;1744722;81;21602;-60
2021/04/02 09:22:22;;;;;;;2.80;1.20;;;;;;;6.16;82.61;98610.98;1697214;83;21225;-60
2021/04/02 09:24:49;;;;;;;2.90;1.40;;;;;;;6.15;82.69;98614.75;1675339;83;21169;-61
2021/04/02 09:27:22;;;;;;;2.65;1.20;;;;;;;6.19;82.65;98610.97;1703023;83;21575;-60
2021/04/02 09:29:59;;;;;;;2.00;1.00;;;;;;;6.17;81.87;98609.06;1705796;83;21290;-60
2021/04/02 09:32:28;;;;;;;1.75;0.90;;;;;;;6.03;82.08;98612.84;1707400;83;21315;-60
2021/04/02 09:34:57;;;;;;;1.60;0.70;;;;;;;6.08;81.67;98623.66;1729299;81;21183;-60
2021/04/02 09:37:26;;;;;;;1.50;0.55;;;;;;;6.08;81.58;98614.74;1686701;83;21620;-60
2021/04/02 09:40:00;;;;;;;2.83;0.82;;;;;;;6.06;81.65;98604.19;1686659;83;21164;-61
2021/04/02 09:42:28;;;;;;;1.32;0.68;;;;;;;6.14;81.25;98610.42;1709740;83;21295;-61
2021/04/02 09:45:06;;;;;;;1.20;0.60;;;;;;;6.09;81.48;98595.58;1701712;83;21312;-59
2021/04/02 09:47:47;;;;;;;1.00;0.40;;;;;;;6.18;81.43;98616.91;1814694;78;23665;-61
2021/04/02 09:50:17;;;;;;;1.62;0.40;;;;;;;6.21;80.79;98616.90;1758962;80;21154;-61
2021/04/02 09:52:45;;;;;;;1.20;0.42;;;;;;;6.21;79.62;98626.36;1759296;80;21556;-61
2021/04/02 09:55:14;;;;;;;1.15;0.42;;;;;;;6.08;80.01;98637.17;1757714;80;21102;-61
2021/04/02 09:57:42;;;;;;;1.60;0.40;;;;;;;6.06;79.82;98630.42;1768873;79;21176;-61
2021/04/02 10:00:12;;;;;;;3.05;0.90;;;;;;;5.98;79.62;98630.41;1744389;80;21173;-61
2021/04/02 10:02:39;;;;;;;2.30;0.50;;;;;;;5.84;79.60;98624.70;1716001;83;21316;-61
2021/04/02 10:05:08;;;;;;;2.80;1.00;;;;;;;5.76;78.76;98628.45;1722768;83;21204;-61
2021/04/02 10:07:36;;;;;;;3.55;0.88;;;;;;;5.73;79.42;98631.69;1718570;83;21576;-61
2021/04/02 10:10:06;;;;;;;2.45;0.80;;;;;;;5.78;79.84;98636.55;1705881;83;21730;-61
2021/04/02 10:12:33;;;;;;;1.65;0.60;;;;;;;5.75;80.06;98636.27;1706175;83;21691;-61
2021/04/02 10:15:04;;;;;;;1.40;0.40;;;;;;;5.73;79.92;98641.95;1705320;83;21125;-62
2021/04/02 10:17:32;;;;;;;1.02;0.50;;;;;;;5.81;80.08;98636.58;1716600;83;21740;-62
2021/04/02 10:20:01;;;;;;;1.10;0.40;;;;;;;5.76;79.95;98637.90;1714714;83;21165;-61
2021/04/02 10:22:29;;;;;;;2.10;0.70;;;;;;;5.66;80.26;98647.33;1694324;83;21189;-61
2021/04/02 10:24:56;;;;;;;1.72;0.62;;;;;;;5.60;80.27;98649.75;1704286;83;21137;-62
2021/04/02 10:27:24;;;;;;;0.90;0.40;;;;;;;5.57;80.23;98656.47;1703636;82;21629;-61
2021/04/02 10:29:52;;;;;;;0.60;0.35;;;;;;;5.50;79.85;98654.56;1755659;81;21532;-61
2021/04/02 10:32:20;;;;;;;1.17;0.50;;;;;;;5.42;79.81;98642.38;1729149;82;21209;-62
2021/04/02 10:34:48;;;;;;;1.02;0.53;;;;;;;5.35;80.34;98641.81;1733479;82;21153;-61
2021/04/02 10:37:15;;;;;;;0.90;0.50;;;;;;;5.38;80.51;98637.80;1716356;82;21138;-62
2021/04/02 10:39:43;;;;;;;0.98;0.60;;;;;;;5.39;80.55;98643.45;1716838;82;21166;-58
2021/04/02 10:42:11;;;;;;;1.32;0.47;;;;;;;5.33;80.56;98645.87;1720263;82;21303;-59
2021/04/02 10:44:39;;;;;;;2.00;0.68;;;;;;;5.32;80.66;98658.55;1700011;83;21168;-59
2021/04/02 10:47:08;;;;;;;0.80;0.40;;;;;;;5.33;80.48;98660.17;1693477;83;21651;-60
2021/04/02 10:49:36;;;;;;;1.02;0.53;;;;;;;5.26;80.92;98666.35;1737733;81;21551;-61
2021/04/02 10:52:05;;;;;;;0.60;0.40;;;;;;;5.20;80.86;98662.55;1742736;81;21181;-61
2021/04/02 10:54:34;;;;;;;1.17;0.57;;;;;;;5.19;80.55;98658.22;1754847;81;21542;-61
2021/04/02 10:57:02;;;;;;;2.15;0.45;;;;;;;5.14;80.94;98663.04;1737851;81;21160;-61
2021/04/02 10:59:29;;;;;;;1.00;0.50;;;;;;;5.12;81.16;98671.13;1738615;81;21178;-61
2021/04/02 11:01:57;;;;;;;0.95;0.30;;;;;;;5.16;81.21;98660.09;1752692;81;21692;-60
2021/04/02 11:04:24;;;;;;;0.42;0.20;;;;;;;5.17;80.98;98665.24;1745954;81;21581;-61
2021/04/02 11:06:51;;;;;;;1.22;0.40;;;;;;;5.13;81.06;98667.37;1765572;81;21170;-62
2021/04/02 11:09:18;;;;;;;1.02;0.40;;;;;;;5.15;80.95;98673.30;1740245;81;21170;-62
2021/04/02 11:11:47;;;;;;;1.25;0.50;;;;;;;5.21;80.69;98660.13;1735838;82;21899;-60
2021/04/02 11:14:14;;;;;;;1.22;0.55;;;;;;;5.12;80.95;98663.86;1739869;81;21629;-60
2021/04/02 11:16:42;;;;;;;1.65;1.00;;;;;;;5.17;80.67;98669.82;1743979;81;21157;-60
2021/04/02 11:19:10;;;;;;;1.57;0.82;;;;;;;5.18;80.71;98668.73;1756358;81;22213;-60
2021/04/02 11:21:39;;;;;;;1.07;0.60;;;;;;;5.12;80.98;98669.25;1756237;81;21182;-59
2021/04/02 11:24:07;;;;;;;0.95;0.50;;;;;;;5.16;80.63;98664.96;1741286;81;21676;-60
2021/04/02 11:26:34;;;;;;;1.25;0.60;;;;;;;5.06;79.74;98655.47;1738992;81;21283;-60
2021/04/02 11:29:02;;;;;;;1.20;0.50;;;;;;;5.20;80.26;98669.30;1741667;81;21162;-61
2021/04/02 11:31:29;;;;;;;1.50;0.60;;;;;;;5.16;80.60;98675.75;1740077;81;21166;-61
2021/04/02 11:33:57;;;;;;;1.55;0.70;;;;;;;5.16;80.36;98677.09;1751662;81;21187;-60
2021/04/02 11:36:24;;;;;;;2.02;0.60;;;;;;;5.14;80.06;98672.48;1765363;81;21182;-60
2021/04/02 11:38:52;;;;;;;1.92;0.80;;;;;;;5.13;80.54;98670.88;1739328;81;21223;-60
2021/04/02 11:41:19;;;;;;;1.30;0.60;;;;;;;5.21;80.24;98676.32;1742057;81;21622;-61
2021/04/02 11:43:47;;;;;;;1.22;0.45;;;;;;;5.21;80.47;98679.80;1749318;81;22065;-61
2021/04/02 11:46:15;;;;;;;1.77;0.68;;;;;;;5.23;80.27;98685.77;1757443;81;21186;-59
2021/04/02 11:48:43;;;;;;;1.95;0.60;;;;;;;5.28;80.11;98681.73;1742004;82;21200;-60
2021/04/02 11:51:10;;;;;;;2.15;0.70;;;;;;;5.23;80.25;98683.60;1741860;81;21578;-59
2021/04/02 11:53:38;;;;;;;2.37;0.68;;;;;;;5.20;80.09;98685.48;1684709;84;21184;-60